Terminal Aerodrome Forecast
Issued by NWS Billings, MT

Home | Current Version | Previous Version | Graphics & Text | Print | Product List | Glossary On
Versions: 1 2 3 4 5 6 7 8 9 10 11 12 13 14 15 16 17 18 19 20 21 22 23 24
722
FTUS45 KBYZ 161123
TAFMLS
TAF
KMLS 161123Z 1612/1712 13012G20KT P6SM FEW090 BKN120
     FM162100 22011KT P6SM BKN070
     FM170100 33015KT P6SM -SHRA SCT050 OVC070=

USA.gov is the U.S. government's official web portal to all federal, state and local government web resources and services.